Aérodrome :
LOGIN :

S'inscrire | Disclaimer

   EN    FR    IT 

 










Légende :    VFR   VFR Marginal   IFR   IFR Intensif   IFR Très Intensif
Visi : 
Plafond : 
>= 8 km
>= 3000ft
5 à 8 km
1000 à 3000 ft
1500m à 5 km
500 à 1000 ft
800 à 1500m
200 à 500 ft
< 800m
< 200 ft
Symboles :   Orages  Brouillard  Fortes neiges  Fortes précipitations  Vent > 20 kt
SIGMETs :   Divers  Orages  Givrage  Turbulence  Onde Orograph.  Cendres Volcan.







- Altitude de l'aérodrome : 265 ft
- Code IATA : BJY


LYBT - Batajnica Air Base

DERNIER METAR :
  • 201130Z 36006KT 310V030 9999 SCT045 23/13 Q1018 NOSIG

METARs EXPIRÉS :
  • 201100Z 34006KT 290V030 9999 SCT040 22/13 Q1019 NOSIG
  • 201030Z 35006KT 290V030 9999 SCT040 22/13 Q1019 NOSIG
  • 201000Z 34005KT 250V040 CAVOK 22/13 Q1019 NOSIG
  • 200930Z 34007KT 290V010 CAVOK 21/13 Q1019 NOSIG
  • 200900Z 32005KT 260V030 CAVOK 21/14 Q1019 NOSIG

TAF TAF LYBT
Valide du 20 à 12h jusqu'au 21 à 12h UTC


201100Z 2012/2112 02008KT 9999 SCT040 TX24/2013Z TN12/2103Z
BECMG 2107/2109 11012KT
Pas de NOTAMs connus pour ce terrain.



MET'MAP, la Météo Aéronautique d'un coup d'oeil ! - Copyright ORBIFLY Décembre 2007 - Disclaimer

ORBIFLY MET'MAP TEAM :

Programmation & Développement : Alexandra Zaïnal
Conception & Développement : Baudouin d'Aumeries
Co-Programmation & Développement : Marc-Olivier Méhu
Soutien technique & logistique : Manuel Goepfert

Contact : metmap@orbifly.com




SOURCES & CREDITS :

   NOAA